createdAt,value
2018-07-09T00:00:03.549Z,788.84
2018-07-09T00:00:07.434Z,788.85
2018-07-09T00:00:11.641Z,788.83
2018-07-09T00:00:15.744Z,788.82
2018-07-09T00:00:19.747Z,788.85
2018-07-09T00:00:24.084Z,788.85
2018-07-09T00:00:28.408Z,788.87
2018-07-09T00:00:32.507Z,788.85
2018-07-09T00:00:36.612Z,788.86
2018-07-09T00:00:40.822Z,788.84
2018-07-09T00:00:45.141Z,788.85
2018-07-09T00:00:49.359Z,788.78
2018-07-09T00:00:53.676Z,788.85
2018-07-09T00:00:57.898Z,788.83
2018-07-09T00:01:02.140Z,788.82
2018-07-09T00:01:06.242Z,788.82
2018-07-09T00:01:10.555Z,788.86
2018-07-09T00:01:14.765Z,788.83
2018-07-09T00:01:19.075Z,788.85
2018-07-09T00:01:23.286Z,788.86
2018-07-09T00:01:27.284Z,788.88
2018-07-09T00:01:31.598Z,788.88
2018-07-09T00:01:35.804Z,788.86
2018-07-09T00:01:40.127Z,788.82
2018-07-09T00:01:44.344Z,788.87
2018-07-09T00:01:48.669Z,788.88
2018-07-09T00:01:52.980Z,788.86
2018-07-09T00:01:57.291Z,788.9
2018-07-09T00:02:01.602Z,788.84
2018-07-09T00:02:05.696Z,788.91
2018-07-09T00:02:09.898Z,788.88
2018-07-09T00:02:13.894Z,788.88
2018-07-09T00:02:18.216Z,788.88
2018-07-09T00:02:22.571Z,788.88
2018-07-09T00:02:26.778Z,788.9
2018-07-09T00:02:30.979Z,788.88
2018-07-09T00:02:35.185Z,788.86
2018-07-09T00:02:39.512Z,788.88
2018-07-09T00:02:43.717Z,788.82
2018-07-09T00:02:47.922Z,788.88
2018-07-09T00:02:52.240Z,788.87
2018-07-09T00:02:56.337Z,788.87
2018-07-09T00:03:00.328Z,788.89
2018-07-09T00:03:04.319Z,788.88
2018-07-09T00:03:08.420Z,788.85
2018-07-09T00:03:12.516Z,788.84
2018-07-09T00:03:16.821Z,788.84
2018-07-09T00:03:21.127Z,788.88
2018-07-09T00:03:25.331Z,788.86
2018-07-09T00:03:29.639Z,788.83
2018-07-09T00:03:33.734Z,788.87
2018-07-09T00:03:37.942Z,788.84
2018-07-09T00:03:42.150Z,788.87
2018-07-09T00:03:46.461Z,788.84
2018-07-09T00:03:50.816Z,788.87
2018-07-09T00:03:55.120Z,788.81
2018-07-09T00:03:59.321Z,788.8
2018-07-09T00:04:03.640Z,788.88
2018-07-09T00:04:07.950Z,788.84
2018-07-09T00:04:12.045Z,788.84
2018-07-09T00:04:16.139Z,788.85
2018-07-09T00:04:20.235Z,788.85
2018-07-09T00:04:24.354Z,788.84
2018-07-09T00:04:28.466Z,788.87
2018-07-09T00:04:32.665Z,788.86
2018-07-09T00:04:36.982Z,788.83
2018-07-09T00:04:41.078Z,788.87
2018-07-09T00:04:45.388Z,788.84
2018-07-09T00:04:49.708Z,788.84
2018-07-09T00:04:54.030Z,788.86
2018-07-09T00:04:58.356Z,788.84
2018-07-09T00:05:02.569Z,788.84
2018-07-09T00:05:06.770Z,788.84
2018-07-09T00:05:10.986Z,788.83
2018-07-09T00:05:15.081Z,788.82
2018-07-09T00:05:19.393Z,788.81
2018-07-09T00:05:23.595Z,788.84
2018-07-09T00:05:27.911Z,788.84
2018-07-09T00:05:32.004Z,788.79
2018-07-09T00:05:36.211Z,788.82
2018-07-09T00:05:40.521Z,788.83
2018-07-09T00:05:44.830Z,788.82
2018-07-09T00:05:49.144Z,788.85
2018-07-09T00:05:53.348Z,788.82
2018-07-09T00:05:57.441Z,788.84
2018-07-09T00:06:01.766Z,788.82
2018-07-09T00:06:05.868Z,788.81
2018-07-09T00:06:10.090Z,788.85
2018-07-09T00:06:14.439Z,788.82
2018-07-09T00:06:19.221Z,788.82
2018-07-09T00:06:23.754Z,788.82
2018-07-09T00:06:27.957Z,788.79
2018-07-09T00:06:32.297Z,788.81
2018-07-09T00:06:36.511Z,788.77
2018-07-09T00:06:40.830Z,788.81
2018-07-09T00:06:44.940Z,788.8
2018-07-09T00:06:49.150Z,788.77
2018-07-09T00:06:53.466Z,788.79
2018-07-09T00:06:57.670Z,788.8
2018-07-09T00:07:01.879Z,788.76
2018-07-09T00:07:05.980Z,788.8
2018-07-09T00:07:10.286Z,788.74
2018-07-09T00:07:14.604Z,788.78
2018-07-09T00:07:18.812Z,788.75
2018-07-09T00:07:23.023Z,788.8
2018-07-09T00:07:27.340Z,788.78
2018-07-09T00:07:31.552Z,788.77
2018-07-09T00:07:35.861Z,788.77
2018-07-09T00:07:40.066Z,788.78
2018-07-09T00:07:44.275Z,788.76
2018-07-09T00:07:48.480Z,788.76
2018-07-09T00:07:52.581Z,788.79
2018-07-09T00:07:56.682Z,788.77
2018-07-09T00:08:00.997Z,788.75
2018-07-09T00:08:05.208Z,788.74
2018-07-09T00:08:09.192Z,788.69
2018-07-09T00:08:13.529Z,788.72
2018-07-09T00:08:17.740Z,788.7
2018-07-09T00:08:21.953Z,788.74
2018-07-09T00:08:26.170Z,788.78
2018-07-09T00:08:30.489Z,788.72
2018-07-09T00:08:34.691Z,788.73
2018-07-09T00:08:38.786Z,788.76
2018-07-09T00:08:42.886Z,788.72
2018-07-09T00:08:47.090Z,788.71
2018-07-09T00:08:51.408Z,788.72
2018-07-09T00:08:55.634Z,788.76
2018-07-09T00:08:59.953Z,788.7
2018-07-09T00:09:04.049Z,788.7
2018-07-09T00:09:08.362Z,788.68
2018-07-09T00:09:12.574Z,788.68
2018-07-09T00:09:16.819Z,788.72
2018-07-09T00:09:20.915Z,788.72
2018-07-09T00:09:25.160Z,788.72
2018-07-09T00:09:29.478Z,788.71
2018-07-09T00:09:33.575Z,788.7
2018-07-09T00:09:37.776Z,788.71
2018-07-09T00:09:41.766Z,788.7
2018-07-09T00:09:46.076Z,788.7
2018-07-09T00:09:50.390Z,788.69
2018-07-09T00:09:54.596Z,788.68
2018-07-09T00:09:58.796Z,788.7
2018-07-09T00:10:02.999Z,788.67
2018-07-09T00:10:07.104Z,788.66
2018-07-09T00:10:11.312Z,788.67
2018-07-09T00:10:15.406Z,788.64
2018-07-09T00:10:19.608Z,788.61
2018-07-09T00:10:23.711Z,788.65
2018-07-09T00:10:27.702Z,788.66
2018-07-09T00:10:31.909Z,788.69
2018-07-09T00:10:36.117Z,788.65
2018-07-09T00:10:40.432Z,788.68
2018-07-09T00:10:44.750Z,788.58
2018-07-09T00:10:49.066Z,788.63
2018-07-09T00:10:53.379Z,788.64
2018-07-09T00:10:57.589Z,788.59
2018-07-09T00:11:01.795Z,788.63
2018-07-09T00:11:05.786Z,788.57
2018-07-09T00:11:10.095Z,788.59
2018-07-09T00:11:14.398Z,788.61
2018-07-09T00:11:18.608Z,788.59
2018-07-09T00:11:22.817Z,788.55
2018-07-09T00:11:26.916Z,788.58
2018-07-09T00:11:31.123Z,788.58
2018-07-09T00:11:35.226Z,788.58
2018-07-09T00:11:39.432Z,788.58
2018-07-09T00:11:43.760Z,788.5
2018-07-09T00:11:47.751Z,788.58
2018-07-09T00:11:52.057Z,788.55
2018-07-09T00:11:56.410Z,788.54
2018-07-09T00:12:00.611Z,788.53
2018-07-09T00:12:04.929Z,788.51
2018-07-09T00:12:09.237Z,788.55
2018-07-09T00:12:13.333Z,788.54
2018-07-09T00:12:17.541Z,788.52
2018-07-09T00:12:21.757Z,788.55
2018-07-09T00:12:25.965Z,788.46
2018-07-09T00:12:30.166Z,788.53
2018-07-09T00:12:34.370Z,788.51
2018-07-09T00:12:38.686Z,788.51
2018-07-09T00:12:42.888Z,788.49
2018-07-09T00:12:47.101Z,788.46
2018-07-09T00:12:51.201Z,788.5
2018-07-09T00:12:55.506Z,788.49
2018-07-09T00:12:59.602Z,788.47
2018-07-09T00:13:03.808Z,788.49
2018-07-09T00:13:07.909Z,788.47
2018-07-09T00:13:12.116Z,788.46
2018-07-09T00:13:16.318Z,788.47
2018-07-09T00:13:20.413Z,788.46
2018-07-09T00:13:24.621Z,788.47
2018-07-09T00:13:28.933Z,788.44
2018-07-09T00:13:33.146Z,788.45
2018-07-09T00:13:37.356Z,788.45
2018-07-09T00:13:41.575Z,788.44
2018-07-09T00:13:45.903Z,788.38
2018-07-09T00:13:49.994Z,788.38
2018-07-09T00:13:54.304Z,788.41
2018-07-09T00:13:58.503Z,788.36
2018-07-09T00:14:02.613Z,788.36
2018-07-09T00:14:06.611Z,788.41
2018-07-09T00:14:10.922Z,788.38
2018-07-09T00:14:15.234Z,788.35
2018-07-09T00:14:19.456Z,788.38
2018-07-09T00:14:23.777Z,788.36
2018-07-09T00:14:27.782Z,788.37
2018-07-09T00:14:31.984Z,788.36
2018-07-09T00:14:36.296Z,788.36
2018-07-09T00:14:40.393Z,788.35
2018-07-09T00:14:44.702Z,788.3
2018-07-09T00:14:49.029Z,788.32
2018-07-09T00:14:53.234Z,788.31
2018-07-09T00:14:57.544Z,788.34
2018-07-09T00:15:01.744Z,788.35
2018-07-09T00:15:05.748Z,788.34
2018-07-09T00:15:09.846Z,788.32
2018-07-09T00:15:13.837Z,788.32
2018-07-09T00:15:17.941Z,788.3
2018-07-09T00:15:22.144Z,788.31
2018-07-09T00:15:26.248Z,788.28
2018-07-09T00:15:30.350Z,788.3
2018-07-09T00:15:34.558Z,788.31
2018-07-09T00:15:38.758Z,788.3
2018-07-09T00:15:42.967Z,788.29
2018-07-09T00:15:46.956Z,788.28
2018-07-09T00:15:51.169Z,788.29
2018-07-09T00:15:55.473Z,788.28
2018-07-09T00:15:59.682Z,788.25
2018-07-09T00:16:03.790Z,788.21
2018-07-09T00:16:07.893Z,788.26
2018-07-09T00:16:11.986Z,788.25
2018-07-09T00:16:16.186Z,788.23
2018-07-09T00:16:20.388Z,788.22
2018-07-09T00:16:24.593Z,788.22
2018-07-09T00:16:28.907Z,788.22
2018-07-09T00:16:33.007Z,788.21
2018-07-09T00:16:37.211Z,788.2
2018-07-09T00:16:41.526Z,788.19
2018-07-09T00:16:45.726Z,788.19
2018-07-09T00:16:50.035Z,788.2
2018-07-09T00:16:54.292Z,788.19
2018-07-09T00:16:58.385Z,788.16
2018-07-09T00:17:02.375Z,788.14
2018-07-09T00:17:06.582Z,788.12
2018-07-09T00:17:10.795Z,788.19
2018-07-09T00:17:14.911Z,788.18
2018-07-09T00:17:19.217Z,788.18
2018-07-09T00:17:23.528Z,788.18
2018-07-09T00:17:27.726Z,788.17
2018-07-09T00:17:32.036Z,788.16
2018-07-09T00:17:36.247Z,788.14
2018-07-09T00:17:40.565Z,788.12
2018-07-09T00:17:44.880Z,788.14
2018-07-09T00:17:49.189Z,788.12
2018-07-09T00:17:53.501Z,788.09
2018-07-09T00:17:57.703Z,788.06
2018-07-09T00:18:01.796Z,788.04
2018-07-09T00:18:05.787Z,788.05
2018-07-09T00:18:10.101Z,788.12
2018-07-09T00:18:14.408Z,788.06
2018-07-09T00:18:18.724Z,788.09
2018-07-09T00:18:23.047Z,788.1
2018-07-09T00:18:27.144Z,788.07
2018-07-09T00:18:31.349Z,788.05
2018-07-09T00:18:35.558Z,788.06
2018-07-09T00:18:39.777Z,788.03
2018-07-09T00:18:43.877Z,787.99
2018-07-09T00:18:47.981Z,788.02
2018-07-09T00:18:52.293Z,788.02
2018-07-09T00:18:56.392Z,788.02
2018-07-09T00:19:00.711Z,788.05
2018-07-09T00:19:04.607Z,787.99
2018-07-09T00:19:08.812Z,787.97
2018-07-09T00:19:13.015Z,787.93
2018-07-09T00:19:17.224Z,787.96
2018-07-09T00:19:21.433Z,787.93
2018-07-09T00:19:25.478Z,787.92
2018-07-09T00:19:29.469Z,787.97
2018-07-09T00:19:33.681Z,787.94
2018-07-09T00:19:37.999Z,787.94
2018-07-09T00:19:42.324Z,787.9
2018-07-09T00:19:46.643Z,787.94
2018-07-09T00:19:50.844Z,787.95
2018-07-09T00:19:55.157Z,787.89
2018-07-09T00:19:59.472Z,787.91
2018-07-09T00:20:03.698Z,787.92
2018-07-09T00:20:07.684Z,787.93
2018-07-09T00:20:11.892Z,787.93
2018-07-09T00:20:15.990Z,787.91
2018-07-09T00:20:20.081Z,787.88
2018-07-09T00:20:24.288Z,787.85
2018-07-09T00:20:28.394Z,787.85
2018-07-09T00:20:32.599Z,787.87
2018-07-09T00:20:36.695Z,787.84
2018-07-09T00:20:40.897Z,787.83
2018-07-09T00:20:45.117Z,787.8
2018-07-09T00:20:49.431Z,787.86
2018-07-09T00:20:53.634Z,787.77
2018-07-09T00:20:57.835Z,787.8
2018-07-09T00:21:02.046Z,787.82
2018-07-09T00:21:06.251Z,787.79
2018-07-09T00:21:10.351Z,787.82
2018-07-09T00:21:14.663Z,787.77
2018-07-09T00:21:18.865Z,787.76
2018-07-09T00:21:23.078Z,787.76
2018-07-09T00:21:27.287Z,787.79
2018-07-09T00:21:31.499Z,787.74
2018-07-09T00:21:35.701Z,787.75
2018-07-09T00:21:40.014Z,787.73
2018-07-09T00:21:44.326Z,787.76
2018-07-09T00:21:48.315Z,787.71
2018-07-09T00:21:52.516Z,787.67
2018-07-09T00:21:56.509Z,787.69
2018-07-09T00:22:00.724Z,787.71
2018-07-09T00:22:04.608Z,787.72
2018-07-09T00:22:08.816Z,787.7
2018-07-09T00:22:13.026Z,787.69
2018-07-09T00:22:17.120Z,787.69
2018-07-09T00:22:21.433Z,787.64
2018-07-09T00:22:25.633Z,787.67
2018-07-09T00:22:29.950Z,787.65
2018-07-09T00:22:34.156Z,787.68
2018-07-09T00:22:38.265Z,787.67
2018-07-09T00:22:42.478Z,787.6
2018-07-09T00:22:46.678Z,787.61
2018-07-09T00:22:50.784Z,787.62
2018-07-09T00:22:54.988Z,787.55
2018-07-09T00:22:59.080Z,787.58
2018-07-09T00:23:03.189Z,787.6
2018-07-09T00:23:07.283Z,787.57
2018-07-09T00:23:11.484Z,787.55
2018-07-09T00:23:15.580Z,787.57
2018-07-09T00:23:19.888Z,787.53
2018-07-09T00:23:24.086Z,787.55
2018-07-09T00:23:28.282Z,787.52
2018-07-09T00:23:32.596Z,787.47
2018-07-09T00:23:36.916Z,787.47
2018-07-09T00:23:41.015Z,787.48
2018-07-09T00:23:45.316Z,787.48
2018-07-09T00:23:49.632Z,787.5
2018-07-09T00:23:53.836Z,787.46
2018-07-09T00:23:57.931Z,787.47
2018-07-09T00:24:02.301Z,787.46
2018-07-09T00:24:06.406Z,787.45
2018-07-09T00:24:10.611Z,787.45
2018-07-09T00:24:14.826Z,787.45
2018-07-09T00:24:19.073Z,787.36
2018-07-09T00:24:23.380Z,787.41
2018-07-09T00:24:27.596Z,787.38
2018-07-09T00:24:31.805Z,787.4
2018-07-09T00:24:36.014Z,787.41
2018-07-09T00:24:40.324Z,787.37
2018-07-09T00:24:44.542Z,787.35
2018-07-09T00:24:48.788Z,787.38
2018-07-09T00:24:53.101Z,787.29
2018-07-09T00:24:57.194Z,787.3
2018-07-09T00:25:01.519Z,787.26
2018-07-09T00:25:05.510Z,787.32
2018-07-09T00:25:09.723Z,787.32
2018-07-09T00:25:13.921Z,787.3
2018-07-09T00:25:18.229Z,787.25
2018-07-09T00:25:22.429Z,787.26
2018-07-09T00:25:26.524Z,787.26
2018-07-09T00:25:30.729Z,787.25
2018-07-09T00:25:34.824Z,787.24
2018-07-09T00:25:39.023Z,787.22
2018-07-09T00:25:43.234Z,787.2
2018-07-09T00:25:47.437Z,787.21
2018-07-09T00:25:51.747Z,787.19
2018-07-09T00:25:55.842Z,787.17
2018-07-09T00:26:00.153Z,787.11
2018-07-09T00:26:04.363Z,787.16
2018-07-09T00:26:08.664Z,787.08
2018-07-09T00:26:12.654Z,787.1
2018-07-09T00:26:16.854Z,787.07
2018-07-09T00:26:21.057Z,787.04
2018-07-09T00:26:25.047Z,787.06
2018-07-09T00:26:29.269Z,787.12
2018-07-09T00:26:33.580Z,787.07
2018-07-09T00:26:37.788Z,787.05
2018-07-09T00:26:42.007Z,787.07
2018-07-09T00:26:46.319Z,787.04
2018-07-09T00:26:50.522Z,787.04
2018-07-09T00:26:54.726Z,787.07
2018-07-09T00:26:58.924Z,787.01
2018-07-09T00:27:03.011Z,787.03
2018-07-09T00:27:06.999Z,786.98
2018-07-09T00:27:11.215Z,787
2018-07-09T00:27:15.520Z,786.96
2018-07-09T00:27:19.725Z,786.95
2018-07-09T00:27:23.766Z,786.97
2018-07-09T00:27:27.861Z,786.93
2018-07-09T00:27:32.069Z,786.89
2018-07-09T00:27:36.277Z,786.87
2018-07-09T00:27:40.586Z,786.92
2018-07-09T00:27:44.791Z,786.9
2018-07-09T00:27:48.886Z,786.86
2018-07-09T00:27:53.090Z,786.85
2018-07-09T00:27:57.297Z,786.86
2018-07-09T00:28:01.502Z,786.82
2018-07-09T00:28:05.598Z,786.83
2018-07-09T00:28:09.588Z,786.78
2018-07-09T00:28:13.682Z,786.79
2018-07-09T00:28:17.881Z,786.76
2018-07-09T00:28:22.196Z,786.81
2018-07-09T00:28:26.186Z,786.78
2018-07-09T00:28:30.494Z,786.76
2018-07-09T00:28:34.696Z,786.78
2018-07-09T00:28:38.896Z,786.75
2018-07-09T00:28:43.101Z,786.77
2018-07-09T00:28:47.306Z,786.75
2018-07-09T00:28:51.304Z,786.73
2018-07-09T00:28:55.400Z,786.71
2018-07-09T00:28:59.605Z,786.63
2018-07-09T00:29:03.804Z,786.72
2018-07-09T00:29:08.112Z,786.68
2018-07-09T00:29:12.315Z,786.7
2018-07-09T00:29:16.619Z,786.67
2018-07-09T00:29:20.712Z,786.67
2018-07-09T00:29:25.028Z,786.72
2018-07-09T00:29:29.230Z,786.66
2018-07-09T00:29:33.470Z,786.64
2018-07-09T00:29:37.789Z,786.63
2018-07-09T00:29:42.115Z,786.64
2018-07-09T00:29:46.209Z,786.62
2018-07-09T00:29:50.304Z,786.63
2018-07-09T00:29:54.501Z,786.57
2018-07-09T00:29:58.709Z,786.58
2018-07-09T00:30:03.048Z,786.56
2018-07-09T00:30:07.042Z,786.59
2018-07-09T00:30:11.138Z,786.55
2018-07-09T00:30:15.343Z,786.55
2018-07-09T00:30:19.662Z,786.51
2018-07-09T00:30:23.864Z,786.55
2018-07-09T00:30:27.962Z,786.53
2018-07-09T00:30:32.168Z,786.53
2018-07-09T00:30:36.481Z,786.52
2018-07-09T00:30:40.368Z,786.53
2018-07-09T00:30:44.580Z,786.5
2018-07-09T00:30:48.887Z,786.5
2018-07-09T00:30:53.203Z,786.5
2018-07-09T00:30:57.521Z,786.47
2018-07-09T00:31:01.885Z,786.46
2018-07-09T00:31:06.036Z,786.44
2018-07-09T00:31:10.035Z,786.46
2018-07-09T00:31:14.238Z,786.45
2018-07-09T00:31:18.335Z,786.42
2018-07-09T00:31:22.537Z,786.44
2018-07-09T00:31:26.632Z,786.39
2018-07-09T00:31:30.832Z,786.39
2018-07-09T00:31:35.032Z,786.38
2018-07-09T00:31:39.344Z,786.36
2018-07-09T00:31:43.558Z,786.36
2018-07-09T00:31:47.864Z,786.33
2018-07-09T00:31:52.174Z,786.28
2018-07-09T00:31:55.949Z,786.3
2018-07-09T00:32:00.049Z,786.35
2018-07-09T00:32:04.150Z,786.28
2018-07-09T00:32:08.354Z,786.31
2018-07-09T00:32:12.885Z,786.31
2018-07-09T00:32:17.384Z,786.3
2018-07-09T00:32:22.305Z,786.26
2018-07-09T00:32:26.945Z,786.27
2018-07-09T00:32:31.262Z,786.27
2018-07-09T00:32:35.468Z,786.3
2018-07-09T00:32:39.775Z,786.26
2018-07-09T00:32:43.986Z,786.25
2018-07-09T00:32:48.302Z,786.22
2018-07-09T00:32:52.499Z,786.24
2018-07-09T00:32:56.599Z,786.24
2018-07-09T00:33:00.597Z,786.23
2018-07-09T00:33:04.692Z,786.22
2018-07-09T00:33:08.903Z,786.18
2018-07-09T00:33:13.105Z,786.21
2018-07-09T00:33:17.310Z,786.16
2018-07-09T00:33:21.514Z,786.18
2018-07-09T00:33:25.505Z,786.17
2018-07-09T00:33:29.817Z,786.19
2018-07-09T00:33:34.129Z,786.18
2018-07-09T00:33:38.451Z,786.16
2018-07-09T00:33:42.659Z,786.14
2018-07-09T00:33:46.872Z,786.1
2018-07-09T00:33:51.183Z,786.12
2018-07-09T00:33:55.387Z,786.15
2018-07-09T00:33:59.375Z,786.13
2018-07-09T00:34:03.366Z,786.13
2018-07-09T00:34:07.582Z,786.12
2018-07-09T00:34:11.795Z,786.12
2018-07-09T00:34:16.003Z,786.1
2018-07-09T00:34:20.206Z,786.07
2018-07-09T00:34:24.300Z,786.07
2018-07-09T00:34:28.190Z,786.06
2018-07-09T00:34:32.177Z,786.07
2018-07-09T00:34:36.377Z,786.07
2018-07-09T00:34:40.686Z,786.05
2018-07-09T00:34:45.002Z,786.07
2018-07-09T00:34:49.216Z,786.06
2018-07-09T00:34:53.425Z,786.03
2018-07-09T00:34:57.733Z,786.04
2018-07-09T00:35:01.827Z,785.96
2018-07-09T00:35:06.054Z,785.99
2018-07-09T00:35:10.257Z,785.95
2018-07-09T00:35:14.563Z,786.01
2018-07-09T00:35:18.668Z,785.96
2018-07-09T00:35:22.983Z,786
2018-07-09T00:35:27.190Z,785.98
2018-07-09T00:35:31.291Z,785.97
2018-07-09T00:35:35.606Z,785.99
2018-07-09T00:35:39.921Z,785.97
2018-07-09T00:35:44.015Z,785.97
2018-07-09T00:35:48.218Z,785.97
2018-07-09T00:35:52.427Z,785.93
2018-07-09T00:35:56.526Z,785.89
2018-07-09T00:36:00.833Z,785.88
2018-07-09T00:36:04.941Z,785.88
2018-07-09T00:36:09.045Z,785.9
2018-07-09T00:36:13.352Z,785.94
2018-07-09T00:36:17.666Z,785.92
2018-07-09T00:36:21.861Z,785.92
2018-07-09T00:36:25.962Z,785.92
2018-07-09T00:36:30.170Z,785.94
2018-07-09T00:36:34.262Z,785.91
2018-07-09T00:36:38.580Z,785.89
2018-07-09T00:36:42.898Z,785.89
2018-07-09T00:36:47.208Z,785.87
2018-07-09T00:36:51.410Z,785.9
2018-07-09T00:36:55.394Z,785.89
2018-07-09T00:36:59.484Z,785.88
2018-07-09T00:37:03.475Z,785.89
2018-07-09T00:37:07.676Z,785.88
2018-07-09T00:37:11.773Z,785.83
2018-07-09T00:37:15.976Z,785.87
2018-07-09T00:37:20.293Z,785.87
2018-07-09T00:37:24.392Z,785.86
2018-07-09T00:37:28.642Z,785.86
2018-07-09T00:37:32.844Z,785.84
2018-07-09T00:37:37.152Z,785.85
2018-07-09T00:37:41.466Z,785.84
2018-07-09T00:37:45.671Z,785.85
2018-07-09T00:37:49.880Z,785.83
2018-07-09T00:37:54.187Z,785.87
2018-07-09T00:37:58.178Z,785.84
2018-07-09T00:38:02.392Z,785.85
2018-07-09T00:38:06.385Z,785.86
2018-07-09T00:38:10.480Z,785.85
2018-07-09T00:38:14.576Z,785.82
2018-07-09T00:38:18.678Z,785.84
2018-07-09T00:38:22.990Z,785.85
2018-07-09T00:38:27.084Z,785.8
2018-07-09T00:38:31.405Z,785.84
2018-07-09T00:38:35.607Z,785.85
2018-07-09T00:38:39.921Z,785.82
2018-07-09T00:38:44.129Z,785.81
2018-07-09T00:38:48.229Z,785.85
2018-07-09T00:38:52.536Z,785.82
2018-07-09T00:38:56.526Z,785.81
2018-07-09T00:39:00.621Z,785.85
2018-07-09T00:39:04.828Z,785.72
2018-07-09T00:39:09.025Z,785.83
2018-07-09T00:39:13.342Z,785.79
2018-07-09T00:39:17.650Z,785.75
2018-07-09T00:39:21.858Z,785.8
2018-07-09T00:39:26.066Z,785.79
2018-07-09T00:39:30.275Z,785.76
2018-07-09T00:39:34.587Z,785.75
2018-07-09T00:39:38.799Z,785.74
2018-07-09T00:39:42.997Z,785.74
2018-07-09T00:39:47.206Z,785.74
2018-07-09T00:39:51.560Z,785.72
2018-07-09T00:39:55.763Z,785.71
2018-07-09T00:39:59.969Z,785.75
2018-07-09T00:40:03.965Z,785.73
2018-07-09T00:40:08.168Z,785.7
2018-07-09T00:40:12.267Z,785.73
2018-07-09T00:40:16.596Z,785.74
2018-07-09T00:40:20.907Z,785.75
2018-07-09T00:40:25.120Z,785.71
2018-07-09T00:40:29.435Z,785.72
2018-07-09T00:40:33.746Z,785.68
2018-07-09T00:40:37.949Z,785.7
2018-07-09T00:40:42.043Z,785.7
2018-07-09T00:40:46.253Z,785.69
2018-07-09T00:40:50.557Z,785.69
2018-07-09T00:40:54.763Z,785.7
2018-07-09T00:40:58.966Z,785.66
2018-07-09T00:41:03.110Z,785.66
2018-07-09T00:41:07.106Z,785.66
2018-07-09T00:41:11.420Z,785.63
2018-07-09T00:41:15.664Z,785.67
2018-07-09T00:41:19.976Z,785.66
2018-07-09T00:41:24.288Z,785.68
2018-07-09T00:41:28.500Z,785.65
2018-07-09T00:41:32.706Z,785.65
2018-07-09T00:41:36.912Z,785.65
2018-07-09T00:41:41.220Z,785.65
2018-07-09T00:41:45.312Z,785.63
2018-07-09T00:41:49.409Z,785.59
2018-07-09T00:41:53.613Z,785.65
2018-07-09T00:41:57.820Z,785.64
2018-07-09T00:42:02.129Z,785.64
2018-07-09T00:42:06.231Z,785.61
2018-07-09T00:42:10.435Z,785.66
2018-07-09T00:42:14.642Z,785.6
2018-07-09T00:42:18.954Z,785.62
2018-07-09T00:42:23.169Z,785.64
2018-07-09T00:42:27.374Z,785.62
2018-07-09T00:42:31.362Z,785.64
2018-07-09T00:42:35.671Z,785.65
2018-07-09T00:42:39.978Z,785.64
2018-07-09T00:42:44.077Z,785.64
2018-07-09T00:42:48.171Z,785.59
2018-07-09T00:42:52.478Z,785.65
2018-07-09T00:42:56.573Z,785.64
2018-07-09T00:43:00.928Z,785.62
2018-07-09T00:43:05.137Z,785.63
2018-07-09T00:43:09.340Z,785.66
2018-07-09T00:43:13.546Z,785.56
2018-07-09T00:43:17.779Z,785.63
2018-07-09T00:43:21.994Z,785.63
2018-07-09T00:43:26.096Z,785.58
2018-07-09T00:43:30.191Z,785.62
2018-07-09T00:43:34.495Z,785.64
2018-07-09T00:43:38.710Z,785.59
2018-07-09T00:43:42.910Z,785.62
2018-07-09T00:43:47.115Z,785.61
2018-07-09T00:43:51.315Z,785.6
2018-07-09T00:43:55.681Z,785.61
2018-07-09T00:43:59.788Z,785.58
2018-07-09T00:44:03.988Z,785.61
2018-07-09T00:44:08.306Z,785.58
2018-07-09T00:44:12.511Z,785.53
2018-07-09T00:44:16.609Z,785.58
2018-07-09T00:44:20.703Z,785.57
2018-07-09T00:44:24.802Z,785.6
2018-07-09T00:44:28.899Z,785.56
2018-07-09T00:44:32.994Z,785.58
2018-07-09T00:44:37.092Z,785.56
2018-07-09T00:44:41.295Z,785.55
2018-07-09T00:44:45.390Z,785.6
2018-07-09T00:44:49.590Z,785.57
2018-07-09T00:44:53.805Z,785.55
2018-07-09T00:44:58.015Z,785.53
2018-07-09T00:45:02.236Z,785.56
2018-07-09T00:45:06.231Z,785.49
2018-07-09T00:45:10.433Z,785.53
2018-07-09T00:45:14.523Z,785.53
2018-07-09T00:45:18.663Z,785.52
2018-07-09T00:45:22.969Z,785.52
2018-07-09T00:45:27.067Z,785.54
2018-07-09T00:45:31.175Z,785.51
2018-07-09T00:45:35.379Z,785.54
2018-07-09T00:45:39.591Z,785.5
2018-07-09T00:45:43.899Z,785.47
2018-07-09T00:45:48.209Z,785.5
2018-07-09T00:45:52.518Z,785.5
2018-07-09T00:45:56.725Z,785.48
2018-07-09T00:46:01.033Z,785.47
2018-07-09T00:46:05.172Z,785.44
2018-07-09T00:46:09.376Z,785.45
2018-07-09T00:46:13.577Z,785.44
2018-07-09T00:46:17.782Z,785.47
2018-07-09T00:46:22.090Z,785.43
2018-07-09T00:46:26.297Z,785.45
2018-07-09T00:46:30.503Z,785.45
2018-07-09T00:46:34.819Z,785.44
2018-07-09T00:46:39.024Z,785.44
2018-07-09T00:46:43.010Z,785.46
2018-07-09T00:46:47.117Z,785.43
2018-07-09T00:46:51.432Z,785.43
2018-07-09T00:46:55.636Z,785.42
2018-07-09T00:46:59.831Z,785.43
2018-07-09T00:47:03.821Z,785.43
2018-07-09T00:47:07.817Z,785.42
2018-07-09T00:47:12.128Z,785.43
2018-07-09T00:47:16.230Z,785.4
2018-07-09T00:47:20.432Z,785.39
2018-07-09T00:47:24.632Z,785.4
2018-07-09T00:47:28.832Z,785.41
2018-07-09T00:47:32.819Z,785.41
2018-07-09T00:47:37.022Z,785.41
2018-07-09T00:47:41.226Z,785.42
2018-07-09T00:47:45.548Z,785.43
2018-07-09T00:47:49.751Z,785.41
2018-07-09T00:47:53.954Z,785.38
2018-07-09T00:47:58.051Z,785.38
2018-07-09T00:48:02.149Z,785.41
2018-07-09T00:48:06.472Z,785.41
2018-07-09T00:48:10.675Z,785.39
2018-07-09T00:48:14.784Z,785.42
2018-07-09T00:48:19.100Z,785.4
2018-07-09T00:48:23.307Z,785.39
2018-07-09T00:48:27.627Z,785.38
2018-07-09T00:48:31.938Z,785.39
2018-07-09T00:48:36.250Z,785.36
2018-07-09T00:48:40.564Z,785.4
2018-07-09T00:48:44.876Z,785.39
2018-07-09T00:48:49.075Z,785.39
2018-07-09T00:48:53.425Z,785.4
2018-07-09T00:48:57.410Z,785.4
2018-07-09T00:49:01.718Z,785.39
2018-07-09T00:49:05.929Z,785.36
2018-07-09T00:49:10.236Z,785.42
2018-07-09T00:49:14.437Z,785.43
2018-07-09T00:49:18.641Z,785.38
2018-07-09T00:49:22.836Z,785.37
2018-07-09T00:49:26.840Z,785.41
2018-07-09T00:49:31.046Z,785.38
2018-07-09T00:49:35.039Z,785.36
2018-07-09T00:49:39.350Z,785.4
2018-07-09T00:49:43.443Z,785.42
2018-07-09T00:49:47.644Z,785.43
2018-07-09T00:49:51.845Z,785.39
2018-07-09T00:49:55.948Z,785.35
2018-07-09T00:50:00.049Z,785.36
2018-07-09T00:50:04.382Z,785.42
2018-07-09T00:50:08.369Z,785.42
2018-07-09T00:50:12.677Z,785.41
2018-07-09T00:50:16.880Z,785.4
2018-07-09T00:50:21.083Z,785.4
2018-07-09T00:50:25.286Z,785.37
2018-07-09T00:50:29.489Z,785.4
2018-07-09T00:50:33.588Z,785.41
2018-07-09T00:50:37.906Z,785.42
2018-07-09T00:50:42.113Z,785.4
2018-07-09T00:50:46.318Z,785.37
2018-07-09T00:50:50.412Z,785.39
2018-07-09T00:50:54.707Z,785.36
2018-07-09T00:50:59.365Z,785.4
2018-07-09T00:51:03.709Z,785.37
2018-07-09T00:51:08.684Z,785.36
2018-07-09T00:51:12.797Z,785.35
2018-07-09T00:51:17.111Z,785.39
2018-07-09T00:51:21.317Z,785.37
2018-07-09T00:51:25.521Z,785.38
2018-07-09T00:51:29.725Z,785.36
2018-07-09T00:51:34.039Z,785.36
2018-07-09T00:51:38.249Z,785.39
2018-07-09T00:51:42.445Z,785.35
2018-07-09T00:51:46.750Z,785.36
2018-07-09T00:51:50.960Z,785.33
2018-07-09T00:51:55.166Z,785.37
2018-07-09T00:51:59.478Z,785.33
2018-07-09T00:52:03.585Z,785.35
2018-07-09T00:52:07.688Z,785.35
2018-07-09T00:52:12.014Z,785.34
2018-07-09T00:52:16.214Z,785.36
2018-07-09T00:52:20.419Z,785.33
2018-07-09T00:52:24.742Z,785.33
2018-07-09T00:52:28.845Z,785.28
2018-07-09T00:52:33.052Z,785.32
2018-07-09T00:52:37.042Z,785.33